Time;durP1;ratioP1;P1;durP2;ratioP2;P2;SDS_P1;SDS_P2;PMS_P1;PMS_P2;Temp;Humidity;BMP_temperature;BMP_pressure;BME280_temperature;BME280_humidity;BME280_pressure;Samples;Min_cycle;Max_cycle;Signal;HPM_P1;HPM_P2
2022/12/29 00:00:00;;;;;;;6.60;3.80;;;10.60;89.70;;;;;;5048120;28;20131;-78
2022/12/29 00:02:27;;;;;;;5.53;3.85;;;10.60;89.60;;;;;;5047566;28;20082;-78
2022/12/29 00:04:55;;;;;;;5.63;3.50;;;10.60;89.80;;;;;;5074398;28;20053;-78
2022/12/29 00:07:22;;;;;;;7.15;3.95;;;10.60;89.80;;;;;;5073983;28;20757;-78
2022/12/29 00:09:50;;;;;;;8.07;4.25;;;10.60;89.80;;;;;;5039492;28;20049;-79
2022/12/29 00:12:17;;;;;;;7.35;3.75;;;10.60;90.00;;;;;;5072825;28;20198;-78
2022/12/29 00:17:28;;;;;;;6.37;3.53;;;10.60;90.10;;;;;;5055300;28;20127;-79
2022/12/29 00:36:35;;;;;;;6.40;3.30;;;10.70;89.70;;;;;;5045658;28;20045;-78
2022/12/29 00:44:36;;;;;;;7.23;3.10;;;10.70;89.50;;;;;;5073097;28;20044;-79
2022/12/29 00:47:04;;;;;;;5.32;3.10;;;10.70;89.70;;;;;;5055846;28;20251;-79
2022/12/29 00:49:32;;;;;;;5.32;3.50;;;10.70;89.70;;;;;;5053092;28;20485;-78
2022/12/29 00:52:04;;;;;;;5.13;3.15;;;10.70;89.60;;;;;;5038522;28;20164;-78
2022/12/29 00:54:33;;;;;;;5.45;3.28;;;10.80;89.40;;;;;;5039297;28;20092;-78
2022/12/29 00:57:00;;;;;;;5.83;3.23;;;10.80;89.20;;;;;;5056431;28;20118;-78
2022/12/29 00:59:27;;;;;;;5.22;3.00;;;10.80;89.10;;;;;;5038511;28;20375;-78
2022/12/29 01:01:58;;;;;;;5.97;3.05;;;10.80;89.00;;;;;;5052607;28;20052;-77
2022/12/29 01:04:27;;;;;;;6.05;3.35;;;10.90;88.80;;;;;;5031662;28;20649;-78
2022/12/29 01:06:54;;;;;;;5.70;2.90;;;10.90;88.60;;;;;;5073965;28;20106;-79
2022/12/29 01:12:09;;;;;;;6.18;3.10;;;10.80;88.60;;;;;;5049749;28;20343;-78
2022/12/29 01:14:37;;;;;;;5.63;2.70;;;10.90;88.30;;;;;;5050321;28;20099;-80
2022/12/29 01:17:05;;;;;;;6.00;2.22;;;10.90;88.10;;;;;;5045738;28;20072;-78
2022/12/29 01:19:33;;;;;;;5.07;2.67;;;10.90;88.20;;;;;;5045673;28;20053;-78
2022/12/29 01:22:01;;;;;;;5.40;2.83;;;10.90;88.20;;;;;;5026721;28;20038;-77
2022/12/29 01:24:30;;;;;;;6.28;2.83;;;10.90;88.20;;;;;;5049591;28;20268;-78
2022/12/29 01:26:57;;;;;;;5.50;2.38;;;10.90;88.10;;;;;;5026050;28;20049;-79
2022/12/29 01:29:24;;;;;;;4.55;2.70;;;10.90;88.00;;;;;;5046007;28;20107;-79
2022/12/29 01:31:51;;;;;;;5.15;2.25;;;10.90;87.80;;;;;;5032813;28;20064;-79
2022/12/29 01:34:18;;;;;;;4.50;2.10;;;10.90;87.70;;;;;;5028207;28;20131;-78
2022/12/29 01:36:45;;;;;;;4.60;2.10;;;10.90;87.40;;;;;;5062545;28;20767;-78
2022/12/29 01:39:13;;;;;;;4.50;2.30;;;11.00;87.30;;;;;;5028348;28;20053;-79
2022/12/29 01:41:42;;;;;;;4.43;2.50;;;11.00;87.30;;;;;;5032318;28;20065;-77
2022/12/29 01:44:47;;;;;;;4.50;2.30;;;11.00;87.20;;;;;;5047122;28;20049;-78
2022/12/29 01:47:18;;;;;;;4.73;2.30;;;11.00;86.90;;;;;;5066055;28;20044;-78
2022/12/29 01:49:45;;;;;;;4.82;2.20;;;11.00;86.80;;;;;;5047347;28;20256;-79
2022/12/29 01:52:12;;;;;;;4.60;2.40;;;11.00;86.80;;;;;;5051431;28;20056;-78
2022/12/29 01:54:44;;;;;;;4.32;2.10;;;11.10;86.70;;;;;;5051071;28;20049;-79
2022/12/29 01:57:17;;;;;;;5.28;2.50;;;11.00;86.70;;;;;;5034861;28;20572;-78
2022/12/29 01:59:53;;;;;;;4.60;2.60;;;11.10;86.60;;;;;;5035357;28;20049;-77
2022/12/29 02:02:20;;;;;;;4.60;2.10;;;11.10;86.40;;;;;;5033086;28;20260;-79
2022/12/29 02:04:47;;;;;;;5.70;2.50;;;11.10;86.30;;;;;;5045009;28;20045;-78
2022/12/29 02:07:20;;;;;;;5.07;2.30;;;11.10;86.20;;;;;;5050738;28;20052;-78
2022/12/29 02:09:49;;;;;;;5.43;2.10;;;11.10;86.00;;;;;;5069419;28;20171;-79
2022/12/29 02:12:20;;;;;;;4.60;1.80;;;11.10;85.80;;;;;;5033395;28;20049;-78
2022/12/29 02:14:51;;;;;;;5.35;2.20;;;11.20;85.50;;;;;;5033238;28;20295;-78
2022/12/29 02:17:28;;;;;;;4.85;1.95;;;11.20;85.40;;;;;;5028288;28;20057;-78
2022/12/29 02:20:29;;;;;;;4.25;1.75;;;11.30;85.10;;;;;;5029142;28;20053;-79
2022/12/29 02:23:17;;;;;;;6.22;2.05;;;11.30;84.90;;;;;;5029881;28;20123;-77
2022/12/29 02:26:11;;;;;;;4.17;1.90;;;11.30;84.70;;;;;;5030422;28;20056;-78
2022/12/29 02:29:15;;;;;;;4.15;1.80;;;11.40;84.50;;;;;;5028086;28;20375;-78
2022/12/29 02:31:47;;;;;;;4.15;1.63;;;11.30;84.60;;;;;;5029471;28;20057;-78
2022/12/29 02:34:25;;;;;;;5.45;2.20;;;11.30;84.90;;;;;;5022882;28;20101;-77
2022/12/29 02:37:01;;;;;;;3.95;1.67;;;11.40;85.00;;;;;;5051700;28;20826;-78
2022/12/29 02:39:39;;;;;;;4.10;1.90;;;11.30;85.20;;;;;;5046830;28;20052;-77
2022/12/29 02:42:14;;;;;;;4.40;1.70;;;11.30;85.50;;;;;;5044463;28;20283;-78
2022/12/29 02:44:54;;;;;;;3.65;1.50;;;11.30;85.60;;;;;;5063011;28;20534;-79
2022/12/29 02:47:30;;;;;;;4.07;1.80;;;11.30;85.70;;;;;;5027120;28;20037;-77
2022/12/29 02:50:03;;;;;;;5.32;1.77;;;11.30;85.80;;;;;;5033318;28;20065;-77
2022/12/29 02:52:35;;;;;;;3.90;1.90;;;11.30;86.00;;;;;;5033769;28;20657;-79
2022/12/29 02:55:01;;;;;;;3.45;1.42;;;11.20;86.10;;;;;;5051128;28;20279;-78
2022/12/29 02:57:34;;;;;;;3.80;1.70;;;11.10;86.40;;;;;;5031723;28;20451;-78
2022/12/29 03:00:09;;;;;;;3.72;1.45;;;11.20;86.50;;;;;;5034014;28;20045;-79
2022/12/29 03:03:06;;;;;;;3.97;1.40;;;11.20;86.40;;;;;;5031665;28;20053;-78
2022/12/29 03:05:50;;;;;;;3.73;1.40;;;11.10;86.50;;;;;;5047262;28;20049;-77
2022/12/29 03:08:27;;;;;;;3.08;1.30;;;11.20;86.40;;;;;;5025960;28;20351;-78
2022/12/29 03:11:01;;;;;;;3.90;1.42;;;11.20;86.40;;;;;;5033838;28;20482;-78
2022/12/29 03:16:25;;;;;;;4.65;1.30;;;11.10;86.50;;;;;;5032200;28;20535;-77
2022/12/29 03:19:00;;;;;;;2.87;1.13;;;11.10;86.50;;;;;;5031049;28;20215;-79
2022/12/29 03:24:21;;;;;;;3.78;1.20;;;11.10;86.50;;;;;;5039386;28;20165;-78
2022/12/29 03:26:50;;;;;;;3.17;1.20;;;11.10;86.30;;;;;;5029978;28;20053;-78
2022/12/29 03:29:21;;;;;;;3.50;1.20;;;11.10;86.30;;;;;;5031895;28;20491;-78
2022/12/29 03:31:52;;;;;;;3.40;0.90;;;11.10;86.20;;;;;;5030992;28;20049;-79
2022/12/29 03:34:22;;;;;;;3.85;1.17;;;11.10;86.30;;;;;;5048561;28;20263;-78
2022/12/29 03:36:53;;;;;;;3.97;1.05;;;11.10;86.20;;;;;;5027993;28;20069;-79
2022/12/29 03:39:24;;;;;;;3.13;1.10;;;11.10;86.40;;;;;;5032514;28;20132;-78
2022/12/29 03:41:56;;;;;;;3.30;1.10;;;11.10;86.20;;;;;;5033511;28;20049;-78
2022/12/29 03:44:33;;;;;;;4.67;1.10;;;11.10;85.90;;;;;;5030633;28;20041;-79
2022/12/29 03:47:01;;;;;;;2.45;0.90;;;11.10;85.20;;;;;;5021991;28;20331;-79
2022/12/29 03:49:29;;;;;;;3.72;1.00;;;11.10;85.00;;;;;;5030941;28;20049;-79
2022/12/29 03:51:57;;;;;;;3.40;1.10;;;11.10;85.00;;;;;;5032102;28;20045;-79
2022/12/29 03:54:25;;;;;;;4.35;1.00;;;11.10;84.90;;;;;;5033169;28;20064;-78
2022/12/29 03:56:53;;;;;;;2.97;1.00;;;11.10;84.50;;;;;;5032733;28;20045;-78
2022/12/29 03:59:31;;;;;;;4.28;0.90;;;11.10;84.30;;;;;;5049652;28;20298;-78
2022/12/29 04:01:58;;;;;;;7.30;1.20;;;11.10;84.30;;;;;;5033322;28;20045;-77
2022/12/29 04:04:25;;;;;;;3.97;0.80;;;11.10;84.20;;;;;;5033017;28;21016;-78
2022/12/29 04:06:54;;;;;;;4.30;1.00;;;11.10;84.20;;;;;;5044064;28;20056;-78
2022/12/29 04:09:21;;;;;;;6.87;1.17;;;11.10;84.10;;;;;;5022502;28;20092;-77
2022/12/29 04:11:50;;;;;;;4.32;0.90;;;11.10;83.70;;;;;;5049212;28;20288;-77
2022/12/29 04:14:18;;;;;;;3.95;0.93;;;11.10;84.10;;;;;;5030282;28;20041;-78
2022/12/29 04:16:45;;;;;;;5.18;0.80;;;11.10;84.30;;;;;;5049677;28;20174;-77
2022/12/29 04:19:13;;;;;;;3.85;0.70;;;11.10;84.50;;;;;;5031846;28;20688;-77
2022/12/29 04:21:40;;;;;;;3.83;0.80;;;11.00;84.40;;;;;;5044730;28;20065;-77
2022/12/29 04:24:08;;;;;;;5.18;0.60;;;11.00;84.20;;;;;;5068208;28;21286;-77
2022/12/29 04:26:41;;;;;;;2.58;0.60;;;10.90;84.30;;;;;;5030103;28;20041;-78
2022/12/29 04:29:47;;;;;;;2.63;0.50;;;10.90;83.90;;;;;;5006106;28;20050;-79
2022/12/29 04:32:42;;;;;;;3.38;0.60;;;10.90;84.20;;;;;;4981347;28;20084;-78
2022/12/29 04:35:09;;;;;;;3.73;0.80;;;10.80;84.50;;;;;;5016443;28;20064;-78
2022/12/29 04:37:36;;;;;;;6.32;0.90;;;10.70;84.80;;;;;;5033001;28;20252;-79
2022/12/29 04:40:06;;;;;;;4.88;1.00;;;10.70;85.00;;;;;;5049302;28;20056;-78
2022/12/29 04:42:34;;;;;;;5.30;1.08;;;10.70;85.20;;;;;;5049501;28;20053;-78
2022/12/29 04:45:01;;;;;;;4.85;1.00;;;10.70;85.00;;;;;;5047871;28;20056;-77
2022/12/29 04:47:46;;;;;;;5.37;1.07;;;10.70;84.90;;;;;;5050605;28;20045;-77
2022/12/29 04:50:28;;;;;;;4.75;1.17;;;10.70;84.40;;;;;;5025972;28;20276;-77
2022/12/29 04:53:05;;;;;;;4.95;0.90;;;10.70;84.10;;;;;;5029423;28;20046;-77
2022/12/29 04:55:35;;;;;;;5.57;1.02;;;10.70;83.90;;;;;;5031072;28;20049;-77
2022/12/29 04:58:02;;;;;;;5.57;1.00;;;10.70;83.90;;;;;;5036071;28;20049;-78
2022/12/29 05:00:32;;;;;;;7.37;1.10;;;10.60;83.70;;;;;;5060449;28;20052;-77
2022/12/29 05:03:00;;;;;;;5.60;0.80;;;10.70;83.10;;;;;;5034294;28;20342;-78
2022/12/29 05:05:29;;;;;;;4.38;0.90;;;10.70;83.00;;;;;;5035354;28;20057;-78
2022/12/29 05:07:57;;;;;;;6.60;1.13;;;10.60;83.00;;;;;;5035220;28;20049;-78
2022/12/29 05:10:25;;;;;;;4.50;0.77;;;10.60;83.00;;;;;;5049800;28;20052;-78
2022/12/29 05:12:55;;;;;;;8.13;1.40;;;10.60;83.00;;;;;;5030875;28;20138;-78
2022/12/29 05:15:23;;;;;;;6.70;1.33;;;10.60;82.90;;;;;;5049028;28;20249;-78
2022/12/29 05:17:51;;;;;;;5.78;0.95;;;10.60;82.40;;;;;;5035354;28;20132;-77
2022/12/29 05:20:19;;;;;;;10.57;1.00;;;10.60;82.30;;;;;;5028758;28;20048;-78
2022/12/29 05:22:46;;;;;;;6.53;1.00;;;10.60;82.20;;;;;;5034446;28;20103;-78
2022/12/29 05:25:13;;;;;;;7.67;0.77;;;10.60;82.20;;;;;;5033311;28;20057;-78
2022/12/29 05:28:01;;;;;;;9.48;0.85;;;10.50;82.30;;;;;;5051971;28;20250;-78
2022/12/29 05:30:50;;;;;;;7.40;1.02;;;10.50;82.30;;;;;;5030527;28;20045;-78
2022/12/29 05:33:19;;;;;;;5.55;0.70;;;10.50;82.20;;;;;;5030924;28;20135;-78
2022/12/29 05:35:48;;;;;;;5.97;0.70;;;10.50;82.30;;;;;;5051471;28;20178;-78
2022/12/29 05:38:15;;;;;;;6.37;0.80;;;10.50;82.40;;;;;;5034082;28;20822;-78
2022/12/29 05:40:44;;;;;;;4.55;0.70;;;10.50;82.20;;;;;;5035035;28;20336;-78
2022/12/29 05:43:24;;;;;;;7.50;0.90;;;10.50;82.30;;;;;;5051689;28;20410;-77
2022/12/29 05:46:17;;;;;;;5.28;0.85;;;10.50;82.20;;;;;;5051793;28;20053;-79
2022/12/29 05:48:58;;;;;;;5.15;0.80;;;10.50;82.30;;;;;;5048281;28;20045;-78
2022/12/29 05:51:34;;;;;;;5.43;0.77;;;10.50;82.30;;;;;;5033278;28;20052;-78
2022/12/29 05:54:01;;;;;;;5.55;0.95;;;10.40;82.40;;;;;;5028181;28;20797;-78
2022/12/29 05:56:29;;;;;;;5.18;0.80;;;10.40;82.40;;;;;;5046520;28;20053;-78
2022/12/29 05:59:00;;;;;;;4.40;0.90;;;10.50;82.20;;;;;;5034531;28;20045;-79
2022/12/29 06:01:29;;;;;;;4.53;0.80;;;10.50;81.90;;;;;;5050051;28;20494;-78
2022/12/29 06:03:56;;;;;;;5.67;1.00;;;10.50;81.70;;;;;;5034967;28;20099;-78
2022/12/29 06:06:23;;;;;;;5.10;0.80;;;10.50;81.60;;;;;;5034658;28;20283;-78
2022/12/29 06:08:50;;;;;;;6.38;0.90;;;10.50;81.00;;;;;;5034637;28;20041;-78
2022/12/29 06:11:19;;;;;;;8.05;1.15;;;10.50;81.20;;;;;;5029280;28;20522;-77
2022/12/29 06:13:52;;;;;;;8.48;1.20;;;10.50;80.70;;;;;;5048170;28;20059;-77
2022/12/29 06:16:21;;;;;;;6.70;0.90;;;10.50;79.90;;;;;;5032801;28;20052;-77
2022/12/29 06:18:50;;;;;;;7.13;1.00;;;10.50;79.80;;;;;;5050332;28;20397;-79
2022/12/29 06:21:17;;;;;;;6.80;1.08;;;10.50;79.70;;;;;;5033137;28;20083;-78
2022/12/29 06:23:44;;;;;;;7.50;1.40;;;10.40;80.00;;;;;;5064353;28;20121;-78
2022/12/29 06:26:11;;;;;;;11.25;1.52;;;10.40;79.80;;;;;;5019801;28;20049;-77
2022/12/29 06:28:41;;;;;;;8.73;1.10;;;10.40;79.70;;;;;;5033740;28;20045;-78
2022/12/29 06:31:10;;;;;;;7.82;0.90;;;10.50;79.40;;;;;;5046950;28;20272;-78
2022/12/29 06:33:39;;;;;;;6.88;0.88;;;10.40;79.60;;;;;;5030326;28;20945;-77
2022/12/29 06:36:07;;;;;;;6.78;0.82;;;10.40;79.50;;;;;;5036686;28;20118;-78
2022/12/29 06:38:35;;;;;;;7.65;0.95;;;10.40;79.60;;;;;;5031862;28;20049;-78
2022/12/29 06:41:02;;;;;;;8.40;1.20;;;10.40;79.50;;;;;;5033629;28;20045;-77
2022/12/29 06:43:55;;;;;;;8.57;0.90;;;10.40;79.60;;;;;;5068474;28;20295;-78
2022/12/29 06:46:50;;;;;;;5.88;0.80;;;10.40;79.60;;;;;;5050073;28;20617;-77
2022/12/29 06:49:19;;;;;;;7.43;0.90;;;10.40;79.60;;;;;;5032640;28;20124;-77
2022/12/29 06:51:46;;;;;;;6.60;0.95;;;10.40;79.40;;;;;;5061904;28;20483;-77
2022/12/29 06:54:13;;;;;;;8.17;1.30;;;10.40;79.10;;;;;;5043541;28;20089;-77
2022/12/29 06:56:41;;;;;;;8.40;1.10;;;10.40;79.10;;;;;;5063517;28;20792;-76
2022/12/29 06:59:08;;;;;;;8.20;1.20;;;10.40;79.20;;;;;;5048184;28;20052;-77
2022/12/29 07:01:35;;;;;;;8.40;1.25;;;10.30;79.30;;;;;;5042016;28;20056;-77
2022/12/29 07:04:02;;;;;;;7.43;0.80;;;10.40;79.00;;;;;;5045143;28;20826;-78
2022/12/29 07:06:31;;;;;;;7.97;1.03;;;10.30;79.10;;;;;;5045500;28;20052;-78
2022/12/29 07:08:58;;;;;;;7.70;1.00;;;10.30;79.00;;;;;;5048313;28;20372;-78
2022/12/29 07:11:25;;;;;;;7.88;1.20;;;10.40;78.60;;;;;;5062854;28;20143;-77
2022/12/29 07:13:53;;;;;;;9.90;1.20;;;10.30;79.10;;;;;;5067398;28;20056;-77
2022/12/29 07:16:21;;;;;;;9.40;1.52;;;10.40;78.60;;;;;;5065684;28;20059;-77
2022/12/29 07:18:48;;;;;;;8.03;1.00;;;10.40;78.60;;;;;;5068205;28;20885;-78
2022/12/29 07:21:15;;;;;;;10.50;1.45;;;10.40;78.80;;;;;;5043331;28;20322;-78
2022/12/29 07:23:43;;;;;;;8.82;1.13;;;10.40;78.70;;;;;;5060345;28;20132;-77
2022/12/29 07:26:14;;;;;;;9.60;1.30;;;10.40;78.70;;;;;;5049956;28;20049;-77
2022/12/29 07:28:41;;;;;;;6.82;1.30;;;10.40;78.70;;;;;;5053094;28;20092;-76
2022/12/29 07:31:14;;;;;;;9.40;1.33;;;10.40;78.80;;;;;;5067490;28;20049;-77
2022/12/29 07:33:43;;;;;;;8.32;1.40;;;10.50;78.80;;;;;;5047920;28;20255;-77
2022/12/29 07:36:10;;;;;;;10.25;1.52;;;10.50;78.70;;;;;;5052551;28;20045;-76
2022/12/29 07:38:37;;;;;;;8.15;1.25;;;10.40;78.70;;;;;;5052168;28;20192;-77
2022/12/29 07:41:07;;;;;;;9.35;1.30;;;10.50;78.40;;;;;;5066095;28;20068;-78
2022/12/29 07:43:34;;;;;;;8.50;1.00;;;10.40;78.50;;;;;;5066300;28;20215;-78
2022/12/29 07:46:34;;;;;;;8.60;1.55;;;10.40;78.30;;;;;;5037425;28;21259;-77
2022/12/29 07:49:01;;;;;;;9.13;1.10;;;10.40;78.10;;;;;;5072499;28;20053;-77
2022/12/29 07:51:28;;;;;;;7.40;1.30;;;10.40;78.30;;;;;;5055259;28;20152;-76
2022/12/29 07:53:55;;;;;;;7.95;1.30;;;10.40;78.30;;;;;;5074203;28;20085;-76
2022/12/29 07:56:24;;;;;;;7.50;0.90;;;10.40;77.90;;;;;;5072851;28;20053;-76
2022/12/29 07:58:51;;;;;;;10.25;1.10;;;10.40;77.90;;;;;;5052169;28;20414;-77
2022/12/29 08:01:18;;;;;;;8.45;1.10;;;10.40;77.90;;;;;;5068446;28;21110;-77
2022/12/29 08:03:45;;;;;;;10.05;1.45;;;10.30;78.00;;;;;;5069715;28;20052;-77
2022/12/29 08:06:12;;;;;;;7.15;1.40;;;10.30;77.90;;;;;;5061151;28;20168;-76
2022/12/29 08:08:40;;;;;;;11.37;1.53;;;10.30;77.30;;;;;;5062211;28;20052;-76
2022/12/29 08:11:07;;;;;;;9.73;1.40;;;10.30;77.00;;;;;;5043884;28;20276;-77
2022/12/29 08:13:35;;;;;;;12.30;1.65;;;10.30;76.80;;;;;;5042817;28;20056;-77
2022/12/29 08:16:02;;;;;;;11.88;1.80;;;10.30;76.70;;;;;;5044391;28;20041;-76
2022/12/29 08:18:29;;;;;;;12.88;1.55;;;10.30;76.60;;;;;;5041247;28;20063;-76
2022/12/29 08:21:01;;;;;;;12.20;1.30;;;10.30;76.80;;;;;;5044423;28;20103;-76
2022/12/29 08:23:28;;;;;;;9.27;1.45;;;10.30;76.60;;;;;;5065793;28;20283;-76
2022/12/29 08:25:58;;;;;;;12.55;1.88;;;10.30;76.50;;;;;;5047383;28;20592;-77
2022/12/29 08:28:26;;;;;;;12.05;1.58;;;10.30;76.50;;;;;;5048992;28;20045;-76
2022/12/29 08:30:55;;;;;;;11.23;1.80;;;10.30;76.60;;;;;;5055837;28;20927;-78
2022/12/29 08:33:22;;;;;;;12.53;2.07;;;10.30;76.20;;;;;;5061782;28;20056;-77
2022/12/29 08:35:49;;;;;;;8.52;1.23;;;10.30;76.50;;;;;;5056852;28;20268;-77
2022/12/29 08:38:16;;;;;;;9.90;1.50;;;10.20;76.90;;;;;;5066060;28;20136;-76
2022/12/29 08:40:43;;;;;;;11.90;1.80;;;10.30;76.60;;;;;;5066279;28;20134;-77
2022/12/29 08:43:10;;;;;;;11.43;1.67;;;10.30;76.60;;;;;;5049900;28;20156;-77
2022/12/29 08:45:37;;;;;;;14.87;1.73;;;10.30;76.60;;;;;;5073702;28;20095;-77
2022/12/29 08:48:06;;;;;;;13.65;1.90;;;10.30;76.50;;;;;;5076778;28;20305;-76
2022/12/29 08:50:33;;;;;;;8.85;1.42;;;10.20;76.60;;;;;;5069877;28;20071;-76
2022/12/29 08:53:00;;;;;;;10.75;1.75;;;10.30;76.50;;;;;;5077894;28;20086;-76
2022/12/29 08:55:27;;;;;;;13.95;1.58;;;10.30;75.90;;;;;;5070953;28;20065;-76
2022/12/29 08:57:55;;;;;;;9.33;1.30;;;10.30;75.90;;;;;;5041875;28;20053;-77
2022/12/29 09:00:22;;;;;;;8.13;1.40;;;10.30;75.90;;;;;;5037601;28;20287;-75
2022/12/29 09:02:49;;;;;;;12.10;2.00;;;10.30;75.70;;;;;;5058394;28;20141;-75
2022/12/29 09:05:18;;;;;;;10.10;1.45;;;10.40;75.20;;;;;;5077957;28;20059;-76
2022/12/29 09:07:45;;;;;;;11.07;1.38;;;10.40;75.50;;;;;;5071656;28;20128;-76
2022/12/29 09:10:12;;;;;;;8.57;1.63;;;10.30;75.60;;;;;;5071401;28;20130;-76
2022/12/29 09:12:39;;;;;;;10.35;1.40;;;10.40;75.80;;;;;;5052987;28;21211;-76
2022/12/29 09:15:08;;;;;;;11.88;1.50;;;10.40;75.90;;;;;;5050833;28;20048;-77
2022/12/29 09:17:45;;;;;;;9.80;1.73;;;10.40;75.90;;;;;;5072342;28;20049;-75
2022/12/29 09:20:12;;;;;;;8.27;1.50;;;10.40;76.10;;;;;;5066808;28;20083;-76
2022/12/29 09:22:41;;;;;;;12.67;1.40;;;10.40;76.30;;;;;;5049127;28;20049;-76
2022/12/29 09:25:09;;;;;;;10.90;2.00;;;10.30;76.60;;;;;;5056987;28;20247;-77
2022/12/29 09:27:37;;;;;;;11.05;1.42;;;10.30;77.10;;;;;;5076340;28;20931;-77
2022/12/29 09:30:06;;;;;;;11.32;1.65;;;10.30;77.40;;;;;;5077512;28;20106;-77
2022/12/29 09:32:33;;;;;;;11.80;1.73;;;10.30;77.20;;;;;;5040146;28;20049;-76
2022/12/29 09:35:00;;;;;;;12.90;1.90;;;10.30;77.30;;;;;;5056105;28;20055;-77
2022/12/29 09:37:27;;;;;;;9.93;1.33;;;10.20;77.60;;;;;;5048629;28;20252;-78
2022/12/29 09:39:56;;;;;;;10.82;2.08;;;10.20;77.60;;;;;;5040135;28;20048;-80
2022/12/29 09:42:28;;;;;;;11.27;1.90;;;10.30;77.10;;;;;;5046526;28;20075;-76
2022/12/29 09:45:09;;;;;;;10.27;1.48;;;10.30;77.10;;;;;;5062849;28;20059;-77
2022/12/29 09:47:37;;;;;;;8.67;1.50;;;10.30;77.30;;;;;;5046090;28;20156;-77
2022/12/29 09:50:11;;;;;;;8.88;1.50;;;10.20;77.80;;;;;;5060701;28;20359;-74
2022/12/29 09:52:47;;;;;;;9.95;1.52;;;10.10;78.30;;;;;;5062185;28;20156;-76
2022/12/29 09:55:18;;;;;;;8.82;1.70;;;10.10;78.90;;;;;;5062540;28;20143;-73
2022/12/29 09:57:49;;;;;;;8.85;1.45;;;10.10;79.30;;;;;;5062156;28;20060;-74
2022/12/29 10:00:19;;;;;;;9.17;1.40;;;10.10;79.60;;;;;;5044609;28;20502;-75
2022/12/29 10:02:52;;;;;;;11.15;1.58;;;10.10;79.70;;;;;;5058572;28;20276;-76
2022/12/29 10:05:30;;;;;;;8.40;1.20;;;10.10;80.00;;;;;;5050724;28;20041;-77
2022/12/29 10:08:11;;;;;;;9.25;1.40;;;10.00;80.20;;;;;;5049526;28;20060;-76
2022/12/29 10:10:44;;;;;;;12.75;1.63;;;10.00;80.70;;;;;;5034062;28;20975;-77
2022/12/29 10:13:23;;;;;;;7.33;1.43;;;10.00;80.80;;;;;;5042784;28;20122;-78
2022/12/29 10:16:02;;;;;;;11.70;1.67;;;10.00;81.20;;;;;;5047862;28;20318;-79
2022/12/29 10:18:48;;;;;;;12.13;1.65;;;9.90;81.40;;;;;;5060942;28;20058;-78
2022/12/29 10:21:23;;;;;;;11.73;1.90;;;9.90;81.60;;;;;;5046344;28;20049;-77
2022/12/29 10:23:54;;;;;;;9.60;1.38;;;9.80;81.80;;;;;;5046087;28;20115;-78
2022/12/29 10:26:28;;;;;;;8.63;1.63;;;9.80;82.20;;;;;;5048077;28;21058;-78
2022/12/29 10:28:59;;;;;;;7.28;1.30;;;9.80;82.40;;;;;;5068500;28;20292;-75
2022/12/29 10:31:33;;;;;;;14.25;1.88;;;9.90;82.10;;;;;;5051113;28;20045;-74
2022/12/29 10:34:06;;;;;;;11.70;1.73;;;9.90;82.20;;;;;;5056135;28;20059;-75
2022/12/29 10:36:38;;;;;;;7.32;1.23;;;9.80;82.40;;;;;;5074498;28;20052;-76
2022/12/29 10:39:14;;;;;;;8.93;1.60;;;9.90;82.80;;;;;;5072081;28;20177;-72
2022/12/29 10:41:48;;;;;;;6.80;1.35;;;9.80;83.10;;;;;;5049912;28;20273;-76
2022/12/29 10:44:19;;;;;;;9.13;1.58;;;9.80;83.30;;;;;;5057088;28;20087;-75
2022/12/29 10:46:54;;;;;;;7.55;1.27;;;9.80;83.50;;;;;;5026381;28;20052;-73
2022/12/29 10:49:22;;;;;;;7.78;1.27;;;9.80;83.40;;;;;;5040448;28;20165;-73
2022/12/29 10:51:52;;;;;;;8.83;1.60;;;9.80;83.60;;;;;;5045092;28;20103;-74
2022/12/29 10:54:24;;;;;;;9.32;1.63;;;9.80;83.70;;;;;;5063319;28;20322;-73
2022/12/29 10:56:55;;;;;;;10.07;1.23;;;9.70;84.10;;;;;;5065705;28;20057;-74
2022/12/29 10:59:25;;;;;;;8.10;0.93;;;9.70;84.40;;;;;;5048025;28;20067;-76
2022/12/29 11:02:00;;;;;;;8.85;1.33;;;9.70;84.50;;;;;;5043967;28;20048;-76
2022/12/29 11:04:43;;;;;;;8.87;1.33;;;9.70;84.80;;;;;;4967829;28;20144;-73
2022/12/29 11:07:39;;;;;;;8.63;1.15;;;9.70;84.90;;;;;;5061419;28;20405;-78
2022/12/29 11:10:39;;;;;;;7.18;1.00;;;9.60;85.10;;;;;;5044380;28;20049;-75
2022/12/29 11:13:19;;;;;;;10.52;1.50;;;9.60;85.00;;;;;;5063453;28;20052;-74
2022/12/29 11:15:47;;;;;;;5.95;1.25;;;9.60;85.10;;;;;;5065094;28;20050;-75
2022/12/29 11:18:24;;;;;;;6.37;1.27;;;9.70;85.10;;;;;;5045006;28;20091;-75
2022/12/29 11:20:52;;;;;;;11.27;1.30;;;9.60;85.30;;;;;;5063104;28;20383;-76
2022/12/29 11:23:30;;;;;;;4.47;1.10;;;9.60;85.40;;;;;;5037316;28;20048;-75
2022/12/29 11:26:19;;;;;;;9.55;1.40;;;9.70;85.70;;;;;;5042652;28;20052;-75
2022/12/29 11:29:04;;;;;;;6.38;1.05;;;9.70;85.60;;;;;;5062173;28;20055;-75
2022/12/29 11:31:31;;;;;;;12.60;1.67;;;9.70;85.60;;;;;;5062798;28;20111;-75
2022/12/29 11:33:58;;;;;;;10.23;1.60;;;9.70;85.80;;;;;;5043335;28;20306;-73
2022/12/29 11:36:26;;;;;;;8.75;1.20;;;9.70;85.90;;;;;;5044300;28;20061;-74
2022/12/29 11:38:55;;;;;;;6.43;1.10;;;9.70;85.90;;;;;;5045467;28;20048;-75
2022/12/29 11:41:26;;;;;;;8.88;1.50;;;9.70;86.20;;;;;;5047130;28;20058;-74
2022/12/29 11:43:57;;;;;;;13.03;1.90;;;9.60;86.30;;;;;;5063873;28;20052;-74
2022/12/29 11:46:28;;;;;;;8.40;1.50;;;9.60;86.50;;;;;;5053519;28;20327;-73
2022/12/29 11:48:58;;;;;;;9.98;1.90;;;9.70;86.50;;;;;;5045470;28;20052;-76
2022/12/29 11:51:29;;;;;;;8.52;1.42;;;9.70;86.60;;;;;;5062852;28;20480;-72
2022/12/29 11:53:59;;;;;;;14.00;2.25;;;9.70;86.30;;;;;;5046399;28;20045;-73
2022/12/29 11:56:37;;;;;;;12.67;1.80;;;9.70;86.20;;;;;;5045541;28;20194;-75
2022/12/29 11:59:36;;;;;;;11.50;1.92;;;9.80;86.30;;;;;;5059872;28;20260;-73
2022/12/29 12:02:31;;;;;;;19.77;4.65;;;9.70;86.30;;;;;;5051160;28;20222;-73
2022/12/29 12:05:05;;;;;;;14.13;2.35;;;9.80;86.00;;;;;;5037689;28;20041;-75
2022/12/29 12:07:40;;;;;;;9.82;1.40;;;9.80;85.80;;;;;;5065216;28;20146;-71
2022/12/29 12:10:13;;;;;;;13.60;3.27;;;9.80;85.50;;;;;;5061251;28;20084;-74
2022/12/29 12:12:48;;;;;;;11.82;1.88;;;9.80;85.30;;;;;;5067854;28;20268;-71
2022/12/29 12:15:20;;;;;;;8.68;1.48;;;9.80;85.00;;;;;;5032924;28;20428;-71
2022/12/29 12:18:15;;;;;;;10.27;1.85;;;9.80;84.70;;;;;;5028523;28;20055;-72
2022/12/29 12:20:47;;;;;;;10.20;1.30;;;9.80;84.40;;;;;;5049679;28;20045;-73
2022/12/29 12:23:26;;;;;;;9.10;1.60;;;9.80;84.20;;;;;;5046582;28;20103;-74
2022/12/29 12:26:00;;;;;;;13.60;2.75;;;9.80;84.20;;;;;;5040876;28;20375;-73
2022/12/29 12:28:35;;;;;;;13.88;2.08;;;9.80;84.00;;;;;;5049300;28;20132;-69
2022/12/29 12:31:13;;;;;;;10.50;1.80;;;9.80;83.70;;;;;;5031799;28;20832;-72
2022/12/29 12:33:45;;;;;;;12.98;2.25;;;9.80;83.90;;;;;;5066433;28;20143;-76
2022/12/29 12:36:30;;;;;;;17.53;2.80;;;9.80;84.00;;;;;;5064880;28;20526;-75
2022/12/29 12:39:05;;;;;;;10.15;1.60;;;9.80;84.00;;;;;;5046271;28;20334;-73
2022/12/29 12:41:43;;;;;;;14.00;1.95;;;9.80;84.00;;;;;;5053704;28;20079;-73
2022/12/29 12:44:16;;;;;;;13.07;2.00;;;9.80;84.20;;;;;;5060703;28;20045;-74
2022/12/29 12:46:59;;;;;;;13.98;1.95;;;9.80;84.20;;;;;;5045609;28;20048;-74
2022/12/29 12:50:15;;;;;;;13.20;1.60;;;9.80;84.60;;;;;;5045040;28;20053;-73
2022/12/29 12:52:59;;;;;;;10.48;2.15;;;9.80;84.20;;;;;;4980845;28;20390;-74
2022/12/29 12:55:44;;;;;;;9.38;1.63;;;9.80;84.20;;;;;;5052454;28;20060;-74
2022/12/29 12:58:20;;;;;;;11.50;2.10;;;9.80;83.70;;;;;;5054388;28;20056;-73
2022/12/29 13:01:00;;;;;;;13.43;2.47;;;9.80;83.20;;;;;;5035618;28;20073;-72
2022/12/29 13:03:48;;;;;;;13.33;1.83;;;9.80;83.30;;;;;;5060750;28;20079;-73
2022/12/29 13:06:23;;;;;;;12.52;2.38;;;9.80;83.00;;;;;;5061409;28;20265;-74
2022/12/29 13:09:11;;;;;;;8.77;1.13;;;9.80;82.90;;;;;;5064825;28;20057;-74
2022/12/29 13:11:52;;;;;;;6.93;0.93;;;9.80;82.10;;;;;;5044904;28;20064;-75
2022/12/29 13:14:30;;;;;;;8.85;1.60;;;9.80;81.70;;;;;;5046135;28;20049;-75
2022/12/29 13:17:05;;;;;;;12.37;1.53;;;9.80;80.90;;;;;;5061224;28;20135;-75
2022/12/29 13:19:41;;;;;;;9.68;1.40;;;9.80;80.80;;;;;;5067077;28;20292;-74
2022/12/29 13:22:13;;;;;;;11.10;1.60;;;9.80;80.90;;;;;;5048830;28;20055;-75
2022/12/29 13:24:52;;;;;;;11.88;1.70;;;9.80;80.80;;;;;;5048982;28;20130;-74
2022/12/29 13:27:26;;;;;;;10.30;0.95;;;9.90;80.70;;;;;;5048822;28;20045;-74
2022/12/29 13:30:03;;;;;;;9.93;1.30;;;9.90;80.50;;;;;;5062126;28;20056;-74
2022/12/29 13:32:46;;;;;;;7.75;1.10;;;9.80;80.60;;;;;;5067475;28;20765;-75
2022/12/29 13:35:30;;;;;;;13.27;1.40;;;9.80;80.40;;;;;;5035541;28;20053;-75
2022/12/29 13:38:03;;;;;;;13.05;1.80;;;9.80;80.40;;;;;;5069475;28;20111;-75
2022/12/29 13:40:35;;;;;;;9.68;1.70;;;9.80;80.60;;;;;;5061615;28;20057;-75
2022/12/29 13:43:03;;;;;;;8.33;1.20;;;9.80;80.60;;;;;;5049995;28;20520;-74
2022/12/29 13:45:33;;;;;;;12.85;1.63;;;9.80;80.10;;;;;;5050716;28;20716;-75
2022/12/29 13:48:06;;;;;;;9.68;1.58;;;9.80;80.20;;;;;;5049871;28;20049;-75